createdAt,value
2023-01-12T05:00:31.180Z,100604.03
2023-01-12T05:03:00.831Z,100616.63
2023-01-12T05:05:31.109Z,100599.97
2023-01-12T05:08:20.424Z,100599.25
2023-01-12T05:10:54.595Z,100588.31
2023-01-12T05:13:22.438Z,100576.28
2023-01-12T05:15:49.473Z,100568.16
2023-01-12T05:18:16.366Z,100604.84
2023-01-12T05:20:43.198Z,100586.94
2023-01-12T05:23:09.992Z,100600.72
2023-01-12T05:25:36.889Z,100544.31
2023-01-12T05:28:04.777Z,100609.91
2023-01-12T05:30:32.738Z,100558.84
2023-01-12T05:32:59.636Z,100580.25
2023-01-12T05:35:26.398Z,100553.31
2023-01-12T05:37:56.483Z,100547.31
2023-01-12T05:40:23.430Z,100587.38
2023-01-12T05:43:09.935Z,100524.63
2023-01-12T05:45:36.952Z,100522.53
2023-01-12T05:48:04.129Z,100553.59
2023-01-12T05:50:30.978Z,100524.50
2023-01-12T05:53:10.398Z,100518.63
2023-01-12T05:55:38.584Z,100550.69
2023-01-12T05:58:05.641Z,100484.69
2023-01-12T06:00:32.516Z,100516.97
2023-01-12T06:02:59.384Z,100462.28
2023-01-12T06:05:26.435Z,100515.81
2023-01-12T06:07:53.189Z,100474.94
2023-01-12T06:10:20.055Z,100464.28
2023-01-12T06:13:08.987Z,100439.03
2023-01-12T06:15:36.520Z,100467.59
2023-01-12T06:18:03.543Z,100468.94
2023-01-12T06:20:30.451Z,100474.31
2023-01-12T06:23:01.812Z,100511.75
2023-01-12T06:25:30.289Z,100441.19
2023-01-12T06:27:57.181Z,100505.94
2023-01-12T06:30:24.064Z,100500.41
2023-01-12T06:32:53.759Z,100516.63
2023-01-12T06:35:21.736Z,100445.00
2023-01-12T06:37:48.845Z,100474.81
2023-01-12T06:40:15.625Z,100512.78
2023-01-12T06:42:42.492Z,100500.28
2023-01-12T06:45:12.557Z,100519.63
2023-01-12T06:47:49.672Z,100487.66
2023-01-12T06:50:17.825Z,100488.31
2023-01-12T06:52:45.097Z,100474.69
2023-01-12T06:55:11.903Z,100526.09
2023-01-12T06:57:38.709Z,100518.00
2023-01-12T07:00:06.472Z,100477.63
2023-01-12T07:02:34.273Z,100513.28
2023-01-12T07:05:00.991Z,100460.59
2023-01-12T07:07:27.739Z,100499.66
2023-01-12T07:09:56.107Z,100503.69
2023-01-12T07:12:24.010Z,100508.09
2023-01-12T07:14:51.041Z,100444.72
2023-01-12T07:17:19.196Z,100473.09
2023-01-12T07:19:45.905Z,100465.78
2023-01-12T07:22:12.623Z,100431.56
2023-01-12T07:24:39.397Z,100490.75
2023-01-12T07:27:06.580Z,100500.28
2023-01-12T07:29:33.423Z,100466.09
2023-01-12T07:32:01.833Z,100516.03
2023-01-12T07:34:29.985Z,100452.47
2023-01-12T07:36:56.634Z,100490.41
2023-01-12T07:39:24.805Z,100494.78
2023-01-12T07:42:10.475Z,100485.03
2023-01-12T07:44:40.000Z,100517.47
2023-01-12T07:47:09.550Z,100519.25
2023-01-12T07:49:36.443Z,100528.31
2023-01-12T07:52:03.248Z,100507.91
2023-01-12T07:54:30.335Z,100511.63
2023-01-12T07:56:58.127Z,100504.69
2023-01-12T07:59:27.740Z,100521.53
2023-01-12T08:01:55.662Z,100512.31
2023-01-12T08:04:22.843Z,100519.91
2023-01-12T08:06:49.667Z,100441.78
2023-01-12T08:09:16.675Z,100495.56
2023-01-12T08:11:43.373Z,100464.47
2023-01-12T08:14:11.259Z,100477.25
2023-01-12T08:16:39.573Z,100458.00
2023-01-12T08:19:11.848Z,100502.69
2023-01-12T08:21:45.992Z,100463.81
2023-01-12T08:24:17.319Z,100489.75
2023-01-12T08:26:44.521Z,100484.38
2023-01-12T08:29:29.841Z,100479.22
2023-01-12T08:31:59.425Z,100492.00
2023-01-12T08:34:27.563Z,100441.94
2023-01-12T08:36:54.896Z,100476.78
2023-01-12T08:39:21.945Z,100429.81
2023-01-12T08:41:48.887Z,100460.75
2023-01-12T08:44:17.950Z,100489.41
2023-01-12T08:46:48.735Z,100514.72
2023-01-12T08:49:17.166Z,100491.53
2023-01-12T08:51:44.255Z,100428.34
2023-01-12T08:54:12.431Z,100492.31
2023-01-12T08:56:39.332Z,100513.88
2023-01-12T08:59:07.597Z,100490.91
2023-01-12T09:01:35.812Z,100491.34
2023-01-12T09:04:03.225Z,100506.94
2023-01-12T09:06:35.703Z,100451.22
2023-01-12T09:09:04.579Z,100487.81
2023-01-12T09:11:31.548Z,100480.66
2023-01-12T09:14:01.948Z,100502.06
2023-01-12T09:16:31.213Z,100450.72
2023-01-12T09:18:58.816Z,100484.72
2023-01-12T09:21:27.026Z,100499.94
2023-01-12T09:23:54.813Z,100501.25
2023-01-12T09:26:31.814Z,100480.81
2023-01-12T09:29:02.580Z,100502.03
2023-01-12T09:31:30.794Z,100415.19
2023-01-12T09:33:58.090Z,100456.53
2023-01-12T09:36:26.429Z,100442.75
2023-01-12T09:38:53.370Z,100450.03
2023-01-12T09:41:41.727Z,100495.75
2023-01-12T09:44:50.522Z,100476.78
2023-01-12T09:47:19.213Z,100496.06
2023-01-12T09:50:01.374Z,100451.38
2023-01-12T09:53:07.262Z,100499.31
2023-01-12T09:55:46.060Z,100430.75
2023-01-12T09:58:50.633Z,100500.78
2023-01-12T10:01:28.708Z,100461.25
2023-01-12T10:03:57.652Z,100486.84
2023-01-12T10:06:24.587Z,100486.69
2023-01-12T10:08:52.522Z,100478.44
2023-01-12T10:11:26.106Z,100496.09
2023-01-12T10:13:52.849Z,100500.31
2023-01-12T10:16:45.580Z,100473.06
2023-01-12T10:19:28.229Z,100484.09
2023-01-12T10:21:55.748Z,100442.28
2023-01-12T10:24:23.721Z,100467.84
2023-01-12T10:26:57.674Z,100473.66
2023-01-12T10:29:24.507Z,100474.22
2023-01-12T10:31:51.981Z,100464.78
2023-01-12T10:34:19.326Z,100474.06
2023-01-12T10:36:53.872Z,100485.59
2023-01-12T10:39:33.283Z,100441.41
2023-01-12T10:42:41.136Z,100480.56
2023-01-12T10:45:10.637Z,100472.88
2023-01-12T10:47:43.778Z,100470.91
2023-01-12T10:50:28.047Z,100457.38
2023-01-12T10:53:16.455Z,100425.03
2023-01-12T10:55:43.228Z,100447.16
2023-01-12T10:58:31.080Z,100469.53
2023-01-12T11:00:58.581Z,100430.16
2023-01-12T11:03:37.388Z,100459.88
2023-01-12T11:06:27.091Z,100442.84
2023-01-12T11:08:55.015Z,100436.81
2023-01-12T11:11:33.434Z,100468.47
2023-01-12T11:14:02.087Z,100461.84
2023-01-12T11:16:35.597Z,100402.25
2023-01-12T11:19:41.499Z,100462.38
2023-01-12T11:22:13.144Z,100468.50
2023-01-12T11:24:47.507Z,100469.50
2023-01-12T11:27:18.053Z,100465.25
2023-01-12T11:30:00.874Z,100470.63
2023-01-12T11:32:39.747Z,100471.09
2023-01-12T11:35:25.036Z,100466.59
2023-01-12T11:37:54.016Z,100431.41
2023-01-12T11:40:33.760Z,100448.63
2023-01-12T11:43:32.724Z,100441.66
2023-01-12T11:46:24.000Z,100420.75
2023-01-12T11:49:22.489Z,100411.34
2023-01-12T11:51:56.317Z,100413.66
2023-01-12T11:54:23.083Z,100379.13
2023-01-12T11:57:02.603Z,100402.00
2023-01-12T12:00:00.485Z,100401.84
2023-01-12T12:02:33.370Z,100391.78
2023-01-12T12:05:05.845Z,100407.72
2023-01-12T12:07:54.073Z,100367.19
2023-01-12T12:10:23.893Z,100393.75
2023-01-12T12:13:28.359Z,100402.84
2023-01-12T12:16:17.654Z,100394.25
2023-01-12T12:18:58.095Z,100354.53
2023-01-12T12:21:30.545Z,100385.34
2023-01-12T12:24:01.399Z,100373.03
2023-01-12T12:26:50.000Z,100368.47
2023-01-12T12:29:55.066Z,100384.72
2023-01-12T12:32:43.082Z,100401.25
2023-01-12T12:35:27.841Z,100395.75
2023-01-12T12:38:05.896Z,100397.97
2023-01-12T12:41:07.829Z,100358.44
2023-01-12T12:43:54.247Z,100372.88
2023-01-12T12:46:22.122Z,100393.94
2023-01-12T12:49:01.991Z,100382.72
2023-01-12T12:51:34.408Z,100347.09
2023-01-12T12:54:06.389Z,100362.03
2023-01-12T12:56:34.964Z,100339.31
2023-01-12T12:59:04.821Z,100348.41
2023-01-12T13:01:31.595Z,100375.94
2023-01-12T13:03:59.851Z,100371.56
2023-01-12T13:06:30.521Z,100366.06
2023-01-12T13:09:25.184Z,100372.22
2023-01-12T13:11:59.121Z,100370.09
2023-01-12T13:14:29.009Z,100374.34
2023-01-12T13:16:57.259Z,100360.53
2023-01-12T13:20:10.636Z,100371.47
2023-01-12T13:22:47.070Z,100333.19
2023-01-12T13:25:16.909Z,100381.44
2023-01-12T13:28:07.122Z,100353.59
2023-01-12T13:30:35.135Z,100360.06
2023-01-12T13:33:16.264Z,100348.41
2023-01-12T13:35:46.759Z,100364.94
2023-01-12T13:38:15.433Z,100368.50
2023-01-12T13:40:42.699Z,100357.16
2023-01-12T13:43:34.690Z,100348.41
2023-01-12T13:46:05.273Z,100355.88
2023-01-12T13:48:34.134Z,100331.41
2023-01-12T13:51:07.731Z,100361.03
2023-01-12T13:53:34.781Z,100345.97
2023-01-12T13:56:08.328Z,100326.38
2023-01-12T13:58:42.227Z,100320.56
2023-01-12T14:01:23.349Z,100351.16
2023-01-12T14:04:18.076Z,100363.97
2023-01-12T14:07:14.798Z,100331.56
2023-01-12T14:09:53.788Z,100349.41
2023-01-12T14:12:47.723Z,100355.41
2023-01-12T14:15:51.893Z,100351.16
2023-01-12T14:18:22.228Z,100345.66
2023-01-12T14:20:57.411Z,100348.72
2023-01-12T14:23:27.718Z,100344.03
2023-01-12T14:26:09.345Z,100321.53
2023-01-12T14:28:37.573Z,100274.72
2023-01-12T14:31:06.614Z,100314.09
2023-01-12T14:33:35.490Z,100276.16
2023-01-12T14:36:27.931Z,100332.84
2023-01-12T14:38:56.026Z,100316.50
2023-01-12T14:41:43.275Z,100305.16
2023-01-12T14:44:40.206Z,100273.09
2023-01-12T14:47:09.792Z,100294.00
2023-01-12T14:49:37.593Z,100296.59
2023-01-12T14:52:21.918Z,100331.91
2023-01-12T14:54:48.911Z,100324.75
2023-01-12T14:57:39.172Z,100276.81
2023-01-12T15:00:07.411Z,100315.56
2023-01-12T15:02:37.285Z,100301.47
2023-01-12T15:05:10.420Z,100323.66
2023-01-12T15:07:39.287Z,100317.66
2023-01-12T15:10:14.829Z,100328.00
2023-01-12T15:12:54.331Z,100333.25
2023-01-12T15:15:27.404Z,100304.94
2023-01-12T15:18:15.408Z,100278.13
2023-01-12T15:21:02.050Z,100301.59
2023-01-12T15:23:54.164Z,100338.66
2023-01-12T15:26:21.921Z,100305.94
2023-01-12T15:28:49.096Z,100297.63
2023-01-12T15:31:28.111Z,100261.22
2023-01-12T15:33:54.984Z,100278.03
2023-01-12T15:36:22.741Z,100315.97
2023-01-12T15:38:49.901Z,100289.28
2023-01-12T15:41:39.923Z,100299.34
2023-01-12T15:44:11.784Z,100312.63
2023-01-12T15:46:38.449Z,100296.44
2023-01-12T15:49:05.897Z,100292.84
2023-01-12T15:51:33.199Z,100282.50
2023-01-12T15:54:00.471Z,100328.19
2023-01-12T15:56:27.274Z,100299.19
2023-01-12T15:58:54.421Z,100323.00
2023-01-12T16:01:22.850Z,100312.63
2023-01-12T16:04:15.058Z,100331.50
2023-01-12T16:06:37.849Z,100313.78
2023-01-12T16:09:04.597Z,100332.31
2023-01-12T16:11:39.879Z,100326.97
2023-01-12T16:14:06.882Z,100280.28
2023-01-12T16:16:34.744Z,100323.72
2023-01-12T16:19:06.200Z,100281.56
2023-01-12T16:21:35.431Z,100325.44
2023-01-12T16:24:02.192Z,100329.56
2023-01-12T16:26:29.429Z,100325.38
2023-01-12T16:28:57.705Z,100331.84
2023-01-12T16:31:25.634Z,100327.78
2023-01-12T16:33:52.605Z,100335.06
2023-01-12T16:36:21.986Z,100266.50
2023-01-12T16:38:50.800Z,100313.84
2023-01-12T16:41:22.288Z,100308.34
2023-01-12T16:43:49.650Z,100204.03
2023-01-12T16:46:17.538Z,100275.13
2023-01-12T16:48:48.732Z,100306.44
2023-01-12T16:51:16.759Z,100295.09
2023-01-12T16:53:45.219Z,100261.38
2023-01-12T16:56:13.103Z,100260.28
2023-01-12T16:58:42.457Z,100288.00
2023-01-12T17:01:13.618Z,100308.88
2023-01-12T17:03:41.781Z,100291.75
2023-01-12T17:06:13.537Z,100307.94
2023-01-12T17:08:42.135Z,100251.53
2023-01-12T17:11:10.668Z,100306.59
2023-01-12T17:13:39.250Z,100284.25
2023-01-12T17:16:10.430Z,100296.47
2023-01-12T17:18:38.268Z,100285.94
2023-01-12T17:21:11.948Z,100281.66
2023-01-12T17:23:39.827Z,100283.78
2023-01-12T17:26:28.198Z,100280.34
2023-01-12T17:28:59.493Z,100258.16
2023-01-12T17:31:26.641Z,100265.50
2023-01-12T17:33:54.277Z,100260.75
2023-01-12T17:36:22.245Z,100272.94
2023-01-12T17:38:49.450Z,100269.25
2023-01-12T17:41:34.870Z,100216.59
2023-01-12T17:44:03.462Z,100265.66
2023-01-12T17:46:31.762Z,100279.09
2023-01-12T17:48:59.486Z,100280.41
2023-01-12T17:51:26.643Z,100276.53
2023-01-12T17:53:55.599Z,100251.56
2023-01-12T17:56:24.871Z,100273.44
2023-01-12T17:58:52.302Z,100281.72
2023-01-12T18:01:19.578Z,100278.97
2023-01-12T18:03:46.385Z,100274.75
2023-01-12T18:06:18.530Z,100271.19
2023-01-12T18:08:52.810Z,100263.44
2023-01-12T18:11:20.039Z,100255.47
2023-01-12T18:13:47.465Z,100268.91
2023-01-12T18:16:14.936Z,100241.25
2023-01-12T18:18:43.847Z,100275.56
2023-01-12T18:21:12.533Z,100256.28
2023-01-12T18:23:39.462Z,100260.47
2023-01-12T18:26:07.597Z,100254.69
2023-01-12T18:28:36.479Z,100256.44
2023-01-12T18:31:16.780Z,100261.63
2023-01-12T18:33:45.474Z,100262.44
2023-01-12T18:36:16.694Z,100270.88
2023-01-12T18:38:43.515Z,100258.22
2023-01-12T18:41:29.546Z,100248.22
2023-01-12T18:43:58.585Z,100254.38
2023-01-12T18:46:47.735Z,100252.25
2023-01-12T18:49:14.427Z,100248.38
2023-01-12T18:51:59.406Z,100248.19
2023-01-12T18:54:26.102Z,100242.53
2023-01-12T18:56:52.818Z,100245.44
2023-01-12T18:59:19.559Z,100229.75
2023-01-12T19:01:46.285Z,100239.94
2023-01-12T19:04:23.041Z,100244.31
2023-01-12T19:07:03.476Z,100244.63
2023-01-12T19:09:40.253Z,100249.03
2023-01-12T19:12:08.530Z,100260.66
2023-01-12T19:14:53.666Z,100251.28
2023-01-12T19:17:32.988Z,100246.75
2023-01-12T19:20:09.178Z,100264.06
2023-01-12T19:22:55.841Z,100266.66
2023-01-12T19:25:41.663Z,100266.81
2023-01-12T19:28:31.092Z,100268.75
2023-01-12T19:31:10.997Z,100265.06
2023-01-12T19:33:42.695Z,100277.34
2023-01-12T19:36:10.570Z,100268.78
2023-01-12T19:38:40.479Z,100265.69
2023-01-12T19:41:13.268Z,100266.97
2023-01-12T19:43:45.000Z,100264.72
2023-01-12T19:46:14.630Z,100264.38
2023-01-12T19:48:41.832Z,100254.19
2023-01-12T19:51:10.979Z,100252.56
2023-01-12T19:53:38.427Z,100266.00
2023-01-12T19:56:09.353Z,100236.72
2023-01-12T19:58:36.234Z,100253.72
2023-01-12T20:01:02.986Z,100257.09
2023-01-12T20:03:29.733Z,100242.69
2023-01-12T20:05:56.371Z,100254.50
2023-01-12T20:08:24.506Z,100240.28
2023-01-12T20:10:55.408Z,100242.06
2023-01-12T20:13:22.164Z,100235.41
2023-01-12T20:15:50.351Z,100241.25
2023-01-12T20:18:18.246Z,100239.44
2023-01-12T20:20:44.959Z,100244.00
2023-01-12T20:23:12.064Z,100234.78
2023-01-12T20:25:40.048Z,100219.13
2023-01-12T20:28:07.056Z,100232.41
2023-01-12T20:30:37.974Z,100240.09
2023-01-12T20:33:06.408Z,100228.06
2023-01-12T20:35:33.232Z,100216.75
2023-01-12T20:38:00.110Z,100216.38
2023-01-12T20:40:26.834Z,100215.63
2023-01-12T20:42:53.478Z,100218.97
2023-01-12T20:45:20.802Z,100211.59
2023-01-12T20:47:47.729Z,100209.38
2023-01-12T20:50:14.921Z,100205.84
2023-01-12T20:52:41.566Z,100207.06
2023-01-12T20:55:08.476Z,100197.22
2023-01-12T20:57:41.494Z,100192.03
2023-01-12T21:00:08.653Z,100207.00
2023-01-12T21:02:35.805Z,100199.69
2023-01-12T21:05:02.740Z,100187.25
2023-01-12T21:07:29.468Z,100192.13
2023-01-12T21:09:56.217Z,100180.81
2023-01-12T21:12:22.930Z,100178.38
2023-01-12T21:14:49.640Z,100179.69
2023-01-12T21:17:17.650Z,100193.09
2023-01-12T21:19:44.333Z,100183.56
2023-01-12T21:22:12.082Z,100183.41
2023-01-12T21:24:39.072Z,100176.94
2023-01-12T21:27:05.702Z,100179.84
2023-01-12T21:29:32.588Z,100166.56
2023-01-12T21:32:02.230Z,100174.66
2023-01-12T21:34:29.437Z,100161.91
2023-01-12T21:36:56.093Z,100161.75
2023-01-12T21:39:22.744Z,100160.91
2023-01-12T21:42:07.723Z,100157.22
2023-01-12T21:44:34.416Z,100151.56
2023-01-12T21:47:01.467Z,100157.22
2023-01-12T21:49:28.122Z,100152.84
2023-01-12T21:51:54.735Z,100155.91
2023-01-12T21:54:21.404Z,100142.97
2023-01-12T21:56:48.046Z,100150.91
2023-01-12T21:59:14.813Z,100159.63
2023-01-12T22:01:41.535Z,100134.56
2023-01-12T22:04:08.268Z,100138.91
2023-01-12T22:06:34.992Z,100113.53
2023-01-12T22:09:01.603Z,100112.41
2023-01-12T22:11:28.353Z,100123.91
2023-01-12T22:13:55.062Z,100107.56
2023-01-12T22:16:21.837Z,100108.19
2023-01-12T22:18:49.549Z,100110.78
2023-01-12T22:21:16.941Z,100119.84
2023-01-12T22:23:46.660Z,100124.06
2023-01-12T22:26:14.042Z,100085.22
2023-01-12T22:28:41.810Z,100100.59
